Time;durP1;ratioP1;P1;durP2;ratioP2;P2;SDS_P1;SDS_P2;PMS_P1;PMS_P2;Temp;Humidity;BMP_temperature;BMP_pressure;BME280_temperature;BME280_humidity;BME280_pressure;Samples;Min_cycle;Max_cycle;Signal;HPM_P1;HPM_P2
2021/10/26 03:26:33;;;;;;;18.39;7.77;;;;;;;-2.79;72.14;101229.30;371382;142;874672;-60
2021/10/26 03:27:35;;;;;;;25.65;9.97;;;;;;;-2.89;72.14;101232.90;363898;146;858286;-58
2021/10/26 03:28:37;;;;;;;18.03;7.89;;;;;;;;;;363249;147;858001;-58
2021/10/26 03:29:38;;;;;;;26.31;9.79;;;;;;;;;;360626;147;857284;-61
2021/10/26 03:30:40;;;;;;;20.31;9.31;;;;;;;;;;361077;146;864773;-59
2021/10/26 03:31:42;;;;;;;21.04;9.74;;;;;;;;;;361366;147;864499;-59
2021/10/26 03:32:44;;;;;;;22.08;9.26;;;;;;;;;;357521;147;857206;-60
2021/10/26 03:33:45;;;;;;;19.22;9.65;;;;;;;;;;360391;145;858987;-58
2021/10/26 03:34:47;;;;;;;20.28;9.93;;;;;;;;;;362941;147;865335;-60
2021/10/26 03:35:52;;;;;;;20.78;11.00;;;;;;;;;;359084;148;864261;-59
2021/10/26 03:36:53;;;;;;;23.11;11.59;;;;;;;;;;362325;146;858775;-59
2021/10/26 03:37:55;;;;;;;23.26;10.58;;;;;;;;;;359268;147;856172;-61
2021/10/26 03:38:57;;;;;;;26.15;11.03;;;;;;;;;;361264;146;866683;-62
2021/10/26 03:39:58;;;;;;;24.42;10.89;;;;;;;;;;357213;146;856609;-61
2021/10/26 03:41:00;;;;;;;23.92;11.20;;;;;;;;;;359180;147;856488;-62
2021/10/26 03:42:03;;;;;;;22.95;11.03;;;;;;;;;;359069;147;865497;-62
2021/10/26 03:43:06;;;;;;;23.85;11.64;;;;;;;;;;357956;146;864971;-61
2021/10/26 03:44:08;;;;;;;27.04;11.68;;;;;;;;;;365525;146;857727;-60
2021/10/26 03:45:10;;;;;;;24.61;11.16;;;;;;;;;;360451;147;858681;-60
2021/10/26 03:46:13;;;;;;;27.21;11.67;;;;;;;;;;359365;146;865042;-58
2021/10/26 03:47:14;;;;;;;22.65;11.92;;;;;;;;;;359892;148;857320;-61
2021/10/26 03:48:16;;;;;;;19.27;11.31;;;;;;;;;;358651;147;857443;-61
2021/10/26 03:49:18;;;;;;;24.61;11.54;;;;;;;;;;360802;145;866763;-61
2021/10/26 03:50:20;;;;;;;23.07;11.22;;;;;;;;;;361287;147;865353;-60
2021/10/26 03:51:22;;;;;;;25.61;11.82;;;;;;;;;;359453;146;859554;-63
2021/10/26 03:52:23;;;;;;;21.91;11.71;;;;;;;;;;360898;146;864885;-61
2021/10/26 03:53:25;;;;;;;31.22;12.22;;;;;;;;;;360015;145;861043;-62
2021/10/26 03:54:26;;;;;;;22.56;11.23;;;;;;;;;;359653;146;867190;-59
2021/10/26 03:55:28;;;;;;;23.49;12.14;;;;;;;;;;359908;147;865008;-61
2021/10/26 03:56:30;;;;;;;26.21;11.80;;;;;;;;;;357837;148;857418;-60
2021/10/26 03:57:31;;;;;;;21.02;10.98;;;;;;;;;;362819;146;857420;-59
2021/10/26 03:58:35;;;;;;;20.52;11.46;;;;;;;;;;360654;146;864931;-62
2021/10/26 03:59:36;;;;;;;22.48;11.19;;;;;;;;;;361616;146;857351;-61
2021/10/26 04:00:38;;;;;;;21.59;11.35;;;;;;;;;;359894;146;857397;-58
2021/10/26 04:01:40;;;;;;;23.07;11.29;;;;;;;;;;358669;145;857178;-60
2021/10/26 04:02:42;;;;;;;19.66;10.74;;;;;;;;;;361023;146;864825;-60
2021/10/26 04:03:44;;;;;;;23.01;11.87;;;;;;;;;;362271;148;858913;-61
2021/10/26 04:04:46;;;;;;;20.82;11.30;;;;;;;;;;361911;146;858892;-60
2021/10/26 04:06:55;;;;;;;23.23;11.76;;;;;;;;;;362462;147;858753;-62
2021/10/26 04:08:01;;;;;;;23.40;12.02;;;;;;;;;;367451;146;858341;-59
2021/10/26 04:09:03;;;;;;;24.61;12.04;;;;;;;;;;360698;146;865388;-61
2021/10/26 04:10:07;;;;;;;25.71;11.84;;;;;;;;;;361169;146;857553;-61
2021/10/26 04:11:23;;;;;;;21.09;10.98;;;;;;;;;;361087;147;859130;-62
2021/10/26 04:13:22;;;;;;;21.81;11.55;;;;;;;;;;360164;146;857241;-62
2021/10/26 04:14:24;;;;;;;23.68;11.94;;;;;;;;;;355936;150;864925;-64
2021/10/26 04:15:25;;;;;;;21.61;11.10;;;;;;;;;;360345;145;857316;-65
2021/10/26 04:16:27;;;;;;;20.51;11.09;;;;;;;;;;361231;147;858072;-61
2021/10/26 04:17:29;;;;;;;21.11;11.28;;;;;;;;;;361346;146;859635;-61
2021/10/26 04:18:30;;;;;;;26.94;10.91;;;;;;;;;;361589;147;865423;-61
2021/10/26 04:19:32;;;;;;;19.02;10.81;;;;;;;;;;361273;147;860277;-62
2021/10/26 04:20:34;;;;;;;18.21;10.75;;;;;;;;;;360323;146;866349;-62
2021/10/26 04:21:36;;;;;;;22.78;11.21;;;;;;;;;;360839;148;857243;-62
2021/10/26 04:22:38;;;;;;;23.47;11.09;;;;;;;;;;359614;146;859105;-62
2021/10/26 04:23:39;;;;;;;24.40;12.11;;;;;;;;;;362349;146;865883;-63
2021/10/26 04:24:41;;;;;;;22.56;11.70;;;;;;;;;;361213;147;865504;-64
2021/10/26 04:25:42;;;;;;;20.81;10.66;;;;;;;;;;356964;147;864819;-65
2021/10/26 04:26:44;;;;;;;22.95;10.78;;;;;;;;;;360265;146;857402;-63
2021/10/26 04:27:45;;;;;;;17.27;9.15;;;;;;;;;;359789;147;861892;-62
2021/10/26 04:28:47;;;;;;;23.65;11.14;;;;;;;;;;360591;146;857634;-63
2021/10/26 04:29:48;;;;;;;21.85;10.34;;;;;;;;;;360560;147;866430;-60
2021/10/26 04:30:50;;;;;;;26.12;10.79;;;;;;;;;;359915;147;862715;-61
2021/10/26 04:31:52;;;;;;;20.42;10.36;;;;;;;;;;360902;146;865485;-65
2021/10/26 04:32:53;;;;;;;21.34;10.47;;;;;;;;;;360486;148;861375;-61
2021/10/26 04:33:55;;;;;;;25.40;10.61;;;;;;;;;;360126;147;864905;-70
2021/10/26 04:34:57;;;;;;;22.57;10.58;;;;;;;;;;360880;146;863951;-63
2021/10/26 04:35:58;;;;;;;28.39;10.64;;;;;;;;;;358460;146;865095;-60
2021/10/26 04:37:00;;;;;;;22.14;11.11;;;;;;;;;;360797;145;857483;-62
2021/10/26 04:38:02;;;;;;;20.14;9.82;;;;;;;;;;360143;145;864039;-64
2021/10/26 04:39:04;;;;;;;27.27;11.78;;;;;;;;;;360128;145;856883;-65
2021/10/26 04:40:06;;;;;;;20.63;10.58;;;;;;;;;;364530;145;857370;-59
2021/10/26 04:41:08;;;;;;;20.56;10.25;;;;;;;;;;360239;147;858921;-61
2021/10/26 04:42:10;;;;;;;21.63;10.01;;;;;;;;;;358759;147;857847;-61
2021/10/26 04:43:12;;;;;;;21.80;10.96;;;;;;;;;;361167;147;857254;-64
2021/10/26 04:44:13;;;;;;;19.19;10.71;;;;;;;;;;361355;146;864836;-61
2021/10/26 04:45:15;;;;;;;23.23;10.61;;;;;;;;;;365006;146;857445;-61
2021/10/26 04:46:17;;;;;;;22.94;10.96;;;;;;;;;;359662;145;860240;-64
2021/10/26 04:47:22;;;;;;;26.89;11.05;;;;;;;;;;359763;146;864797;-65
2021/10/26 04:48:22;;;;;;;26.31;10.61;;;;;;;;;;360878;147;857311;-61
2021/10/26 04:49:23;;;;;;;19.05;8.98;;;;;;;;;;362238;148;858439;-62
2021/10/26 04:50:30;;;;;;;19.92;9.76;;;;;;;;;;361944;147;857340;-61
2021/10/26 04:51:29;;;;;;;18.97;10.20;;;;;;;;;;359419;146;857534;-61
2021/10/26 04:52:31;;;;;;;22.19;11.26;;;;;;;;;;364477;147;857870;-59
2021/10/26 04:53:32;;;;;;;20.39;10.26;;;;;;;;;;359525;147;864823;-60
2021/10/26 04:54:34;;;;;;;19.84;10.56;;;;;;;;;;360509;147;857417;-64
2021/10/26 04:55:35;;;;;;;20.86;10.83;;;;;;;;;;359533;146;865354;-61
2021/10/26 04:56:37;;;;;;;27.80;11.35;;;;;;;;;;361803;146;859193;-59
2021/10/26 04:57:40;;;;;;;24.55;11.23;;;;;;;;;;362418;146;866757;-60
2021/10/26 04:58:42;;;;;;;21.53;12.04;;;;;;;;;;361886;147;859009;-63
2021/10/26 04:59:44;;;;;;;20.76;11.14;;;;;;;;;;362218;146;857267;-62
2021/10/26 05:00:45;;;;;;;24.18;12.56;;;;;;;;;;359068;147;866758;-61
2021/10/26 05:01:47;;;;;;;25.82;11.77;;;;;;;;;;360202;147;865592;-61
2021/10/26 05:02:48;;;;;;;22.40;11.66;;;;;;;;;;361784;146;860113;-60
2021/10/26 05:03:51;;;;;;;25.89;12.54;;;;;;;;;;360412;147;865368;-60
2021/10/26 05:04:53;;;;;;;21.66;11.17;;;;;;;;;;360146;147;865891;-60
2021/10/26 05:05:54;;;;;;;26.44;11.81;;;;;;;;;;354226;150;861425;-61
2021/10/26 05:06:56;;;;;;;25.23;11.50;;;;;;;;;;358001;149;866214;-62
2021/10/26 05:07:58;;;;;;;25.39;11.72;;;;;;;;;;359424;147;857420;-62
2021/10/26 05:08:59;;;;;;;23.36;11.39;;;;;;;;;;361741;146;857408;-63
2021/10/26 05:10:01;;;;;;;25.08;11.77;;;;;;;;;;360653;146;857621;-63
2021/10/26 05:11:03;;;;;;;20.31;11.87;;;;;;;;;;358118;146;857412;-62
2021/10/26 05:12:05;;;;;;;24.74;11.74;;;;;;;;;;359102;147;859302;-61
2021/10/26 05:13:06;;;;;;;31.96;13.53;;;;;;;;;;361170;146;863663;-62
2021/10/26 05:14:08;;;;;;;27.57;12.65;;;;;;;;;;361565;148;859744;-62
2021/10/26 05:15:10;;;;;;;29.79;12.49;;;;;;;;;;366978;146;857210;-61
2021/10/26 05:16:12;;;;;;;28.67;13.34;;;;;;;;;;360225;145;857492;-60
2021/10/26 05:17:19;;;;;;;23.47;13.53;;;;;;;;;;357972;147;857260;-60
2021/10/26 05:18:18;;;;;;;25.46;13.48;;;;;;;;;;360171;147;858990;-61
2021/10/26 05:19:21;;;;;;;36.25;15.00;;;;;;;;;;360136;147;860225;-61
2021/10/26 05:20:25;;;;;;;23.77;12.37;;;;;;;;;;361284;147;857828;-61
2021/10/26 05:21:26;;;;;;;28.87;13.39;;;;;;;;;;358838;148;866119;-61
2021/10/26 05:22:30;;;;;;;22.96;11.51;;;;;;;;;;357923;147;859193;-61
2021/10/26 05:23:31;;;;;;;24.12;13.17;;;;;;;;;;359681;147;859135;-62
2021/10/26 05:24:34;;;;;;;36.49;13.29;;;;;;;;;;359442;148;857706;-61
2021/10/26 05:25:35;;;;;;;25.74;13.22;;;;;;;;;;360920;146;865081;-61
2021/10/26 05:26:37;;;;;;;28.90;12.77;;;;;;;;;;360889;145;859119;-61
2021/10/26 05:27:39;;;;;;;27.04;13.91;;;;;;;;;;361926;146;857256;-60
2021/10/26 05:28:41;;;;;;;29.89;13.83;;;;;;;;;;362731;146;865016;-59
2021/10/26 05:29:43;;;;;;;32.25;14.99;;;;;;;;;;360829;146;857176;-59
2021/10/26 05:30:44;;;;;;;27.92;13.38;;;;;;;;;;360726;147;857227;-67
2021/10/26 05:31:46;;;;;;;23.91;12.46;;;;;;;;;;360959;148;865078;-65
2021/10/26 05:32:47;;;;;;;28.96;15.06;;;;;;;;;;359918;146;864498;-60
2021/10/26 05:33:49;;;;;;;30.42;12.94;;;;;;;;;;360061;147;860636;-61
2021/10/26 05:34:50;;;;;;;21.66;11.22;;;;;;;;;;358957;147;862432;-61
2021/10/26 05:35:52;;;;;;;25.90;12.08;;;;;;;;;;361364;148;860247;-61
2021/10/26 05:36:54;;;;;;;26.44;13.11;;;;;;;;;;360468;145;860082;-61
2021/10/26 05:37:55;;;;;;;19.14;11.54;;;;;;;;;;360699;146;865177;-62
2021/10/26 05:38:58;;;;;;;25.46;12.37;;;;;;;;;;357573;148;857682;-61
2021/10/26 05:40:00;;;;;;;22.67;12.21;;;;;;;;;;358224;148;860803;-61
2021/10/26 05:41:02;;;;;;;21.19;12.09;;;;;;;;;;361896;145;859355;-61
2021/10/26 05:42:04;;;;;;;22.17;11.12;;;;;;;;;;359658;148;864453;-61
2021/10/26 05:43:06;;;;;;;22.19;11.69;;;;;;;;;;358176;147;859247;-63
2021/10/26 05:44:07;;;;;;;21.46;10.77;;;;;;;;;;361336;147;857392;-62
2021/10/26 05:45:09;;;;;;;21.76;11.22;;;;;;;;;;359848;147;864787;-60
2021/10/26 05:46:11;;;;;;;21.97;11.41;;;;;;;;;;357080;148;860135;-62
2021/10/26 05:47:13;;;;;;;19.59;10.66;;;;;;;;;;360388;147;857351;-63
2021/10/26 05:48:15;;;;;;;23.70;11.55;;;;;;;;;;360584;147;857473;-64
2021/10/26 05:49:17;;;;;;;27.35;11.94;;;;;;;;;;358140;147;857423;-64
2021/10/26 05:50:19;;;;;;;21.63;11.36;;;;;;;;;;360392;146;857337;-64
2021/10/26 05:51:21;;;;;;;21.33;12.16;;;;;;;;;;359399;147;856535;-65
2021/10/26 05:52:23;;;;;;;26.42;12.73;;;;;;;;;;361047;147;863838;-64
2021/10/26 05:53:24;;;;;;;22.46;12.41;;;;;;;;;;360432;147;863836;-60
2021/10/26 05:54:26;;;;;;;24.63;12.42;;;;;;;;;;360476;147;856111;-63
2021/10/26 05:55:27;;;;;;;20.52;11.89;;;;;;;;;;360341;145;857232;-60
2021/10/26 05:56:29;;;;;;;24.71;12.66;;;;;;;;;;359873;146;857701;-60
2021/10/26 05:57:34;;;;;;;22.40;11.81;;;;;;;;;;360010;147;857768;-60
2021/10/26 05:58:35;;;;;;;23.89;12.26;;;;;;;;;;350042;151;863658;-62
2021/10/26 05:59:38;;;;;;;24.29;12.24;;;;;;;;;;359906;145;864846;-60
2021/10/26 06:00:40;;;;;;;25.99;11.77;;;;;;;;;;362024;147;863664;-59
2021/10/26 06:01:41;;;;;;;18.86;11.89;;;;;;;;;;360542;147;863596;-61
2021/10/26 06:02:43;;;;;;;21.72;11.36;;;;;;;;;;358506;147;856555;-63
2021/10/26 06:03:44;;;;;;;33.75;12.24;;;;;;;;;;360146;147;863792;-62
2021/10/26 06:04:46;;;;;;;23.61;12.59;;;;;;;;;;359069;146;864247;-62
2021/10/26 06:05:48;;;;;;;18.64;8.45;;;;;;;;;;360161;145;861770;-63
2021/10/26 06:06:49;;;;;;;17.81;9.66;;;;;;;;;;361176;147;864115;-67
2021/10/26 06:07:51;;;;;;;25.37;12.21;;;;;;;;;;358235;147;859331;-61
2021/10/26 06:08:54;;;;;;;54.33;22.86;;;;;;;;;;359812;147;856456;-64
2021/10/26 06:09:56;;;;;;;211.50;100.96;;;;;;;;;;360747;147;856258;-61
2021/10/26 06:11:07;;;;;;;24.69;12.51;;;;;;;;;;361093;147;856393;-62
2021/10/26 06:12:09;;;;;;;24.68;12.56;;;;;;;;;;362613;147;856407;-62
2021/10/26 06:13:19;;;;;;;20.09;11.00;;;;;;;;;;361571;147;856595;-61
2021/10/26 06:14:17;;;;;;;14.08;8.23;;;;;;;;;;360158;147;856819;-60
2021/10/26 06:15:19;;;;;;;17.97;8.88;;;;;;;;;;359512;147;856646;-70
2021/10/26 06:16:22;;;;;;;13.36;7.46;;;;;;;;;;362078;147;856609;-64
2021/10/26 06:17:25;;;;;;;17.70;9.09;;;;;;;;;;363039;147;856162;-62
2021/10/26 06:18:27;;;;;;;14.43;6.91;;;;;;;;;;356785;147;856142;-62
2021/10/26 06:19:29;;;;;;;15.74;9.77;;;;;;;;;;359339;147;856618;-64
2021/10/26 06:20:31;;;;;;;16.47;8.31;;;;;;;;;;362153;147;864535;-64
2021/10/26 06:21:33;;;;;;;25.61;10.17;;;;;;;;;;362368;147;856545;-63
2021/10/26 06:22:35;;;;;;;19.38;9.65;;;;;;;;;;355257;151;856675;-62
2021/10/26 06:23:38;;;;;;;15.49;9.25;;;;;;;;;;360545;147;856871;-61
2021/10/26 06:24:45;;;;;;;17.90;10.16;;;;;;;;;;360696;147;863872;-61
2021/10/26 06:25:45;;;;;;;18.77;7.34;;;;;;;;;;361172;148;864013;-61
2021/10/26 06:26:46;;;;;;;16.60;9.86;;;;;;;;;;358561;147;857216;-61
2021/10/26 06:27:48;;;;;;;16.09;8.95;;;;;;;;;;361502;146;856207;-63
2021/10/26 06:28:51;;;;;;;21.01;8.65;;;;;;;;;;360100;147;856196;-61
2021/10/26 06:29:53;;;;;;;17.15;9.53;;;;;;;;;;363710;147;856647;-63
2021/10/26 06:30:56;;;;;;;16.21;8.71;;;;;;;;;;361745;148;856194;-64
2021/10/26 06:31:58;;;;;;;15.64;8.60;;;;;;;;;;361971;147;856965;-67
2021/10/26 06:33:00;;;;;;;16.97;9.11;;;;;;;;;;362705;148;856777;-68
2021/10/26 06:34:02;;;;;;;15.58;7.41;;;;;;;;;;362312;147;856769;-68
2021/10/26 06:35:05;;;;;;;16.13;8.38;;;;;;;;;;362561;147;856230;-67
2021/10/26 06:36:07;;;;;;;15.81;7.75;;;;;;;;;;361039;147;856789;-68
2021/10/26 06:37:10;;;;;;;11.30;6.97;;;;;;;;;;357171;148;856623;-68
2021/10/26 06:38:12;;;;;;;13.15;7.87;;;;;;;;;;360145;146;856583;-68
2021/10/26 06:39:18;;;;;;;14.18;8.00;;;;;;;;;;360989;145;856787;-67
2021/10/26 06:40:20;;;;;;;9.99;6.83;;;;;;;;;;358323;148;856074;-69
2021/10/26 06:41:22;;;;;;;11.00;5.65;;;;;;;;;;358298;147;856427;-68
2021/10/26 06:42:25;;;;;;;20.15;8.83;;;;;;;;;;361725;147;856301;-69
2021/10/26 06:43:27;;;;;;;15.01;8.64;;;;;;;;;;361871;147;856246;-68
2021/10/26 06:44:30;;;;;;;11.84;6.71;;;;;;;;;;358100;150;857563;-68
2021/10/26 06:45:32;;;;;;;15.21;8.00;;;;;;;;;;361220;147;856219;-69
2021/10/26 06:46:35;;;;;;;16.05;7.53;;;;;;;;;;361343;147;863844;-67
2021/10/26 06:47:38;;;;;;;11.84;6.88;;;;;;;;;;359614;148;856743;-68
2021/10/26 06:48:40;;;;;;;9.63;6.22;;;;;;;;;;360955;146;856129;-69
2021/10/26 06:49:43;;;;;;;12.42;7.37;;;;;;;;;;361602;147;856104;-67
2021/10/26 06:50:46;;;;;;;14.35;8.16;;;;;;;;;;361584;147;856568;-67
2021/10/26 06:51:48;;;;;;;11.45;6.75;;;;;;;;;;359582;148;856104;-65
2021/10/26 06:52:50;;;;;;;16.06;9.03;;;;;;;;;;359073;147;864088;-60
2021/10/26 06:53:52;;;;;;;9.46;6.71;;;;;;;;;;361186;147;856734;-60
2021/10/26 06:54:55;;;;;;;21.24;9.17;;;;;;;;;;361939;148;856191;-61
2021/10/26 06:56:04;;;;;;;19.43;7.97;;;;;;;;;;362382;148;856584;-61
2021/10/26 06:57:03;;;;;;;12.99;7.17;;;;;;;;;;360314;147;856229;-60
2021/10/26 06:58:06;;;;;;;11.81;6.94;;;;;;;;;;360928;147;856272;-64
2021/10/26 06:59:08;;;;;;;9.85;6.75;;;;;;;;;;362896;147;856128;-61
2021/10/26 07:00:11;;;;;;;14.90;7.51;;;;;;;;;;361705;147;856106;-61
2021/10/26 07:01:13;;;;;;;13.66;5.67;;;;;;;;;;360063;147;856702;-59
2021/10/26 07:02:15;;;;;;;14.57;8.48;;;;;;;;;;360248;148;856099;-61
2021/10/26 07:03:17;;;;;;;11.86;5.55;;;;;;;;;;359899;147;856684;-59
2021/10/26 07:04:20;;;;;;;13.11;6.25;;;;;;;;;;362008;147;856621;-61
2021/10/26 07:05:23;;;;;;;15.49;6.92;;;;;;;;;;358369;147;856826;-60
2021/10/26 07:06:26;;;;;;;15.32;6.49;;;;;;;;;;362470;148;856879;-59
2021/10/26 07:07:28;;;;;;;22.31;7.11;;;;;;;;;;362171;147;856065;-60
2021/10/26 07:08:30;;;;;;;21.17;8.38;;;;;;;;;;359955;147;856753;-61
2021/10/26 07:09:31;;;;;;;16.11;7.02;;;;;;;;;;361907;147;856225;-60
2021/10/26 07:10:33;;;;;;;14.75;6.87;;;;;;;;;;362600;147;856204;-61
2021/10/26 07:11:35;;;;;;;13.92;7.54;;;;;;;;;;360994;145;856199;-59
2021/10/26 07:12:37;;;;;;;18.04;7.92;;;;;;;;;;360306;147;856694;-61
2021/10/26 07:13:39;;;;;;;14.51;7.03;;;;;;;;;;360316;148;856431;-62
2021/10/26 07:14:40;;;;;;;14.97;7.17;;;;;;;;;;359206;147;856642;-61
2021/10/26 07:15:42;;;;;;;20.31;9.36;;;;;;;;;;361256;147;856098;-61
2021/10/26 07:16:44;;;;;;;14.97;6.96;;;;;;;;;;359267;147;856198;-60
2021/10/26 07:17:46;;;;;;;15.31;7.70;;;;;;;;;;362249;147;856253;-60
2021/10/26 07:18:48;;;;;;;16.47;7.75;;;;;;;;;;360307;147;864035;-60
2021/10/26 07:19:49;;;;;;;11.02;5.28;;;;;;;;;;360468;147;863885;-60
2021/10/26 07:20:51;;;;;;;14.37;6.54;;;;;;;;;;362437;147;856285;-60
2021/10/26 07:21:52;;;;;;;27.69;9.51;;;;;;;;;;363212;147;856761;-62
2021/10/26 07:22:54;;;;;;;9.66;5.80;;;;;;;;;;360898;147;863638;-63
2021/10/26 07:23:56;;;;;;;15.98;6.73;;;;;;;;;;359100;148;856383;-63
2021/10/26 07:25:00;;;;;;;8.96;5.89;;;;;;;;;;362737;148;856834;-61
2021/10/26 07:26:01;;;;;;;24.21;8.44;;;;;;;;;;361166;145;864192;-61
2021/10/26 07:27:03;;;;;;;12.97;7.13;;;;;;;;;;358764;147;857429;-61
2021/10/26 07:28:05;;;;;;;16.54;7.42;;;;;;;;;;361541;148;856724;-61
2021/10/26 07:29:06;;;;;;;13.48;5.74;;;;;;;;;;361056;146;866284;-62
2021/10/26 07:30:10;;;;;;;13.89;6.92;;;;;;;;;;362297;145;856362;-61
2021/10/26 07:31:12;;;;;;;17.52;7.89;;;;;;;;;;360492;147;863838;-61
2021/10/26 07:32:14;;;;;;;22.38;8.12;;;;;;;;;;355224;150;862243;-66
2021/10/26 07:33:21;;;;;;;15.90;7.56;;;;;;;;;;353993;150;864584;-61
2021/10/26 07:34:22;;;;;;;17.39;7.72;;;;;;;;;;359263;147;856597;-62
2021/10/26 07:35:28;;;;;;;12.10;6.49;;;;;;;;;;363341;147;857782;-61
2021/10/26 07:36:40;;;;;;;11.69;6.13;;;;;;;;;;358704;147;864606;-61
2021/10/26 07:37:40;;;;;;;19.09;7.26;;;;;;;;;;360454;147;856685;-61
2021/10/26 07:38:41;;;;;;;24.14;9.05;;;;;;;;;;356900;147;863871;-61
2021/10/26 07:39:47;;;;;;;17.20;7.62;;;;;;;;;;357558;147;863632;-61
2021/10/26 07:51:04;;;;;;;13.89;5.83;;;;;;;6.62;47.47;101171.50;369349;142;880047;-60
2021/10/26 07:52:06;;;;;;;9.58;5.43;;;;;;;6.58;47.56;101170.56;365312;146;856641;-61
2021/10/26 07:53:07;;;;;;;10.47;5.17;;;;;;;;;;361862;147;856198;-62
2021/10/26 07:54:09;;;;;;;11.13;5.10;;;;;;;;;;363312;147;856528;-59
2021/10/26 07:55:10;;;;;;;11.61;5.66;;;;;;;;;;363102;146;856678;-60
2021/10/26 07:56:12;;;;;;;9.85;5.51;;;;;;;;;;364009;145;864020;-59
2021/10/26 07:57:14;;;;;;;12.27;6.19;;;;;;;;;;362756;147;863878;-63
2021/10/26 07:58:16;;;;;;;9.14;4.80;;;;;;;;;;364017;147;864033;-68
2021/10/26 07:59:17;;;;;;;10.16;5.12;;;;;;;;;;362490;146;863844;-61
2021/10/26 08:00:19;;;;;;;13.66;6.01;;;;;;;;;;363863;146;863904;-58
2021/10/26 08:01:21;;;;;;;9.82;5.23;;;;;;;;;;363969;146;857128;-61
2021/10/26 08:02:23;;;;;;;12.70;6.02;;;;;;;;;;363279;146;856324;-63
2021/10/26 08:03:25;;;;;;;11.55;6.20;;;;;;;;;;364915;146;856249;-63
2021/10/26 08:04:26;;;;;;;11.04;5.85;;;;;;;;;;364639;146;863850;-63
2021/10/26 08:05:28;;;;;;;11.26;6.16;;;;;;;;;;357266;149;864072;-61
2021/10/26 08:06:30;;;;;;;9.33;5.76;;;;;;;;;;356333;148;858974;-61
2021/10/26 08:07:32;;;;;;;8.15;4.71;;;;;;;;;;364752;147;856149;-61
2021/10/26 08:08:34;;;;;;;11.89;4.72;;;;;;;;;;364251;146;856246;-61
2021/10/26 08:09:35;;;;;;;8.13;4.37;;;;;;;;;;360602;147;856233;-60
2021/10/26 08:10:37;;;;;;;9.09;5.26;;;;;;;;;;358513;147;856161;-62
2021/10/26 08:11:39;;;;;;;9.34;4.71;;;;;;;;;;360079;148;861264;-60
2021/10/26 08:12:40;;;;;;;10.79;5.04;;;;;;;;;;360900;147;864378;-61
2021/10/26 08:13:42;;;;;;;11.11;5.58;;;;;;;;;;359557;147;864646;-63
2021/10/26 08:14:44;;;;;;;10.43;4.85;;;;;;;;;;358036;147;857269;-62
2021/10/26 08:15:45;;;;;;;6.26;4.44;;;;;;;;;;350418;151;856646;-60
2021/10/26 08:16:47;;;;;;;8.25;4.87;;;;;;;;;;351610;150;864439;-62
2021/10/26 08:17:49;;;;;;;8.03;5.56;;;;;;;;;;361118;147;856358;-62
2021/10/26 08:18:50;;;;;;;6.53;4.37;;;;;;;;;;358368;148;861308;-63
2021/10/26 08:19:52;;;;;;;8.80;5.28;;;;;;;;;;359812;147;856529;-61
2021/10/26 08:20:53;;;;;;;6.31;4.05;;;;;;;;;;358815;147;857375;-62
2021/10/26 08:21:55;;;;;;;10.94;5.61;;;;;;;;;;356628;147;858817;-62
2021/10/26 08:22:57;;;;;;;6.69;4.60;;;;;;;;;;357693;147;865307;-62
2021/10/26 08:24:00;;;;;;;6.37;4.66;;;;;;;;;;359806;147;863936;-63
2021/10/26 08:25:08;;;;;;;6.11;4.40;;;;;;;;;;359514;147;856307;-62
2021/10/26 08:26:08;;;;;;;12.42;5.44;;;;;;;;;;361775;147;856665;-63
2021/10/26 08:27:10;;;;;;;10.19;5.79;;;;;;;;;;359912;147;856494;-61
2021/10/26 08:28:15;;;;;;;8.66;4.99;;;;;;;;;;359850;147;856232;-61
2021/10/26 08:29:30;;;;;;;7.36;4.59;;;;;;;;;;360220;147;856095;-64
2021/10/26 08:30:37;;;;;;;11.19;5.37;;;;;;;;;;357999;148;856530;-63
2021/10/26 08:31:29;;;;;;;17.83;6.20;;;;;;;;;;356089;147;857280;-64
2021/10/26 08:32:45;;;;;;;9.59;4.58;;;;;;;;;;358222;147;863875;-63
2021/10/26 08:35:42;;;;;;;8.82;5.11;;;;;;;;;;361583;147;856491;-63
2021/10/26 08:36:45;;;;;;;10.46;4.80;;;;;;;;;;361648;147;856636;-61
2021/10/26 08:37:47;;;;;;;11.12;4.95;;;;;;;;;;358980;148;856720;-63
2021/10/26 08:38:48;;;;;;;8.94;5.29;;;;;;;;;;359737;147;864519;-62
2021/10/26 08:39:50;;;;;;;8.05;4.76;;;;;;;;;;360524;147;856514;-62
2021/10/26 08:40:52;;;;;;;7.56;4.88;;;;;;;;;;357375;148;863954;-62
2021/10/26 08:41:54;;;;;;;10.06;5.29;;;;;;;;;;357571;147;864254;-61
2021/10/26 08:42:57;;;;;;;6.46;5.01;;;;;;;;;;358500;147;856850;-63
2021/10/26 08:43:59;;;;;;;11.99;6.26;;;;;;;;;;358076;147;857202;-64
2021/10/26 08:45:01;;;;;;;13.41;6.14;;;;;;;;;;360931;147;864813;-61
2021/10/26 08:46:06;;;;;;;9.59;5.08;;;;;;;;;;359162;147;862466;-63
2021/10/26 08:47:09;;;;;;;7.98;4.11;;;;;;;;;;359225;147;863965;-58
2021/10/26 08:48:14;;;;;;;14.75;5.92;;;;;;;;;;361017;148;856659;-60
2021/10/26 08:49:15;;;;;;;9.81;5.20;;;;;;;;;;360176;147;864011;-59
2021/10/26 08:50:20;;;;;;;10.82;5.74;;;;;;;;;;358769;147;856748;-59
2021/10/26 08:51:24;;;;;;;9.64;5.00;;;;;;;;;;362777;146;856212;-59
2021/10/26 08:52:25;;;;;;;8.96;4.41;;;;;;;;;;356623;150;856996;-58
2021/10/26 08:53:29;;;;;;;12.39;5.52;;;;;;;;;;353988;149;856465;-60
2021/10/26 08:54:30;;;;;;;13.11;3.46;;;;;;;;;;357515;148;863817;-62
2021/10/26 08:55:38;;;;;;;5.44;3.60;;;;;;;;;;357687;149;860765;-60
2021/10/26 08:56:40;;;;;;;6.42;3.37;;;;;;;;;;354954;148;857140;-59
2021/10/26 08:57:41;;;;;;;8.82;4.02;;;;;;;;;;356136;148;857370;-60
2021/10/26 08:58:44;;;;;;;6.91;4.34;;;;;;;;;;355124;150;863845;-62
2021/10/26 08:59:45;;;;;;;9.97;4.28;;;;;;;;;;357532;150;858722;-60
2021/10/26 09:00:47;;;;;;;9.40;4.51;;;;;;;;;;356553;149;856455;-60
2021/10/26 09:01:50;;;;;;;8.56;4.26;;;;;;;;;;358107;148;856584;-59
2021/10/26 09:02:53;;;;;;;5.88;3.44;;;;;;;;;;357393;150;864046;-58
2021/10/26 09:03:56;;;;;;;8.29;3.29;;;;;;;;;;357591;148;857119;-60
2021/10/26 09:05:00;;;;;;;5.96;3.83;;;;;;;;;;356254;148;864005;-58
2021/10/26 09:06:02;;;;;;;8.18;2.99;;;;;;;;;;355314;148;856311;-58
2021/10/26 09:07:05;;;;;;;6.11;3.23;;;;;;;;;;355735;148;856302;-60
2021/10/26 09:08:07;;;;;;;6.35;3.06;;;;;;;;;;357509;148;856264;-59
2021/10/26 09:09:12;;;;;;;9.58;4.74;;;;;;;;;;356442;148;856174;-57
2021/10/26 09:10:15;;;;;;;7.18;3.57;;;;;;;;;;354759;150;863738;-55
2021/10/26 09:16:41;;;;;;;5.09;3.79;;;;;;;;;;355967;148;856219;-56
2021/10/26 09:17:43;;;;;;;10.30;4.04;;;;;;;;;;357540;149;856681;-56
2021/10/26 09:18:46;;;;;;;5.75;3.43;;;;;;;;;;355571;148;856871;-57
2021/10/26 09:19:48;;;;;;;7.59;3.34;;;;;;;;;;355956;148;856289;-57
2021/10/26 09:20:50;;;;;;;5.71;3.61;;;;;;;;;;353608;150;859124;-58
2021/10/26 09:21:55;;;;;;;12.67;3.58;;;;;;;;;;356618;148;858585;-60
2021/10/26 09:22:58;;;;;;;12.81;3.53;;;;;;;;;;354796;148;856141;-58
2021/10/26 09:24:00;;;;;;;4.67;3.16;;;;;;;;;;356405;148;857035;-56
2021/10/26 09:25:06;;;;;;;3.86;3.11;;;;;;;;;;358106;148;856605;-58
2021/10/26 09:26:07;;;;;;;6.54;3.59;;;;;;;;;;356841;148;856868;-57
2021/10/26 09:27:10;;;;;;;8.78;4.11;;;;;;;;;;357241;148;857882;-58
2021/10/26 09:28:12;;;;;;;5.43;3.25;;;;;;;;;;348146;151;864377;-58
2021/10/26 09:29:15;;;;;;;5.72;3.26;;;;;;;;;;349966;152;856791;-59
2021/10/26 09:30:22;;;;;;;9.35;3.12;;;;;;;;;;357918;148;856278;-59
2021/10/26 09:31:26;;;;;;;5.90;3.28;;;;;;;;;;357168;148;857226;-58
2021/10/26 09:32:33;;;;;;;7.17;3.65;;;;;;;;;;353479;149;856758;-58
2021/10/26 09:33:35;;;;;;;8.53;3.63;;;;;;;;;;355729;148;856308;-60
2021/10/26 09:34:39;;;;;;;6.39;2.98;;;;;;;;;;356594;148;856129;-60
2021/10/26 09:35:41;;;;;;;4.53;2.82;;;;;;;;;;356233;150;864269;-61
2021/10/26 09:36:43;;;;;;;8.57;4.11;;;;;;;;;;354826;148;863754;-61
2021/10/26 09:37:51;;;;;;;4.49;3.09;;;;;;;;;;355620;148;863978;-61
2021/10/26 09:39:10;;;;;;;5.41;3.17;;;;;;;;;;354222;150;856832;-60
2021/10/26 09:40:12;;;;;;;8.68;3.62;;;;;;;;;;357846;150;856156;-60
2021/10/26 09:41:14;;;;;;;4.88;3.40;;;;;;;;;;357500;148;856235;-60
2021/10/26 09:42:16;;;;;;;5.22;3.32;;;;;;;;;;357375;148;856189;-60
2021/10/26 09:43:17;;;;;;;5.29;2.57;;;;;;;;;;358371;150;864360;-61
2021/10/26 09:44:20;;;;;;;7.90;3.49;;;;;;;;;;350086;151;856429;-60
2021/10/26 09:45:27;;;;;;;5.73;3.51;;;;;;;;;;349791;150;864468;-61
2021/10/26 09:46:30;;;;;;;3.99;3.29;;;;;;;;;;355518;150;863657;-60